Impacts TAF Board
For situational awareness. Not to be used for flight planning purposes.
IDs:

KSEA - Seattle-Tacoma Intl, WA, US

Issued at 1130 UTC 25 Jun 2019
Updated at 1337 UTC 25 Jun 2019
Potential Impact None Slight Moderate High
Time<<26/02Z 26/03Z 26/04Z 26/05Z 26/06Z 26/07Z 26/08Z 26/09Z 26/10Z 26/11Z 26/12Z 26/13Z 26/14Z>>
Type PRVL PRVL PRVL PRVL PRVL PRVL PRVL PRVL PRVL PRVL PRVL PRVL PRVL
VIS >6 >6 >6 >6 >6 >6 >6 >6 >6 >6 >6 >6 >6
CIG 120 120 100 100 100 60 60 60 60 60 60 60 60
Cover OVC OVC OVC OVC OVC OVC OVC OVC OVC OVC OVC OVC OVC
FltCat VFR VFR VFR VFR VFR VFR VFR VFR VFR VFR VFR VFR VFR
WX -- -- -- -- -- -- -- -- -- -- -- -- --
WDir 250 250 250 250 250 230 230 230 230 230 230 230 230
WSpd 6 6 7 7 7 3 3 3 3 3 3 3 3
WGst -- -- -- -- -- -- -- -- -- -- -- -- --
Raw TAF
KSEA 251130Z 2512/2618 03008KT P6SM SCT040 SCT200
  FM251800 29005KT P6SM SCT120 BKN200
  FM252300 25006KT P6SM BKN120 OVC200
  FM260400 25007KT P6SM BKN100 OVC120
  FM260700 23003KT P6SM BKN060 OVC120


METAR Board
Radar Display
Forecast Discussion
For situational awareness. Not to be used for flight planning purposes.